sensor_id;sensor_type;location;lat;lon;timestamp;pressure;altitude;pressure_sealevel;temperature;humidity
77079;BME280;66004;55.096;38.760;2023-02-21T04:00:33;97778.41;;;-11.12;66.89
77079;BME280;66004;55.096;38.760;2023-02-21T04:02:58;97768.03;;;-11.20;66.86
77079;BME280;66004;55.096;38.760;2023-02-21T04:05:24;97762.63;;;-11.15;67.09
77079;BME280;66004;55.096;38.760;2023-02-21T04:07:49;97762.13;;;-11.12;66.80
77079;BME280;66004;55.096;38.760;2023-02-21T04:10:15;97778.53;;;-11.02;66.50
77079;BME280;66004;55.096;38.760;2023-02-21T04:12:40;97787.75;;;-11.03;66.98
77079;BME280;66004;55.096;38.760;2023-02-21T04:15:07;97759.97;;;-11.10;66.76
77079;BME280;66004;55.096;38.760;2023-02-21T04:17:32;97771.44;;;-11.03;66.43
77079;BME280;66004;55.096;38.760;2023-02-21T04:19:58;97774.47;;;-10.99;66.85
77079;BME280;66004;55.096;38.760;2023-02-21T04:22:23;97778.53;;;-11.02;66.71
77079;BME280;66004;55.096;38.760;2023-02-21T04:24:49;97776.06;;;-11.03;66.89
77079;BME280;66004;55.096;38.760;2023-02-21T04:27:14;97778.00;;;-10.99;66.39
77079;BME280;66004;55.096;38.760;2023-02-21T04:29:40;97785.59;;;-11.01;66.25
77079;BME280;66004;55.096;38.760;2023-02-21T04:32:05;97788.38;;;-10.95;66.31
77079;BME280;66004;55.096;38.760;2023-02-21T04:34:31;97792.16;;;-10.97;66.37
77079;BME280;66004;55.096;38.760;2023-02-21T04:36:56;97790.84;;;-10.94;66.86
77079;BME280;66004;55.096;38.760;2023-02-21T04:39:22;97774.22;;;-10.98;66.22
77079;BME280;66004;55.096;38.760;2023-02-21T04:41:47;97774.22;;;-10.98;66.49
77079;BME280;66004;55.096;38.760;2023-02-21T04:44:13;97770.94;;;-11.00;66.23
77079;BME280;66004;55.096;38.760;2023-02-21T04:46:38;97784.56;;;-10.94;66.55
77079;BME280;66004;55.096;38.760;2023-02-21T04:49:04;97782.94;;;-10.95;66.73
77079;BME280;66004;55.096;38.760;2023-02-21T04:51:30;97786.78;;;-10.91;66.37
77079;BME280;66004;55.096;38.760;2023-02-21T04:53:55;97793.88;;;-10.85;66.29
77079;BME280;66004;55.096;38.760;2023-02-21T04:56:23;97781.41;;;-10.86;65.99
77079;BME280;66004;55.096;38.760;2023-02-21T04:58:50;97792.25;;;-10.86;65.97
77079;BME280;66004;55.096;38.760;2023-02-21T05:01:17;97792.25;;;-10.86;66.25
77079;BME280;66004;55.096;38.760;2023-02-21T05:03:43;97794.41;;;-10.88;66.21
77079;BME280;66004;55.096;38.760;2023-02-21T05:06:08;97792.25;;;-10.86;66.07
77079;BME280;66004;55.096;38.760;2023-02-21T05:08:36;97791.16;;;-10.85;66.31
77079;BME280;66004;55.096;38.760;2023-02-21T05:11:02;97791.22;;;-10.80;66.33
77079;BME280;66004;55.096;38.760;2023-02-21T05:13:28;97796.75;;;-10.70;66.00
77079;BME280;66004;55.096;38.760;2023-02-21T05:15:53;97793.03;;;-10.59;65.81
77079;BME280;66004;55.096;38.760;2023-02-21T05:18:19;97792.84;;;-10.52;65.80
77079;BME280;66004;55.096;38.760;2023-02-21T05:20:48;97790.38;;;-10.53;65.50
77079;BME280;66004;55.096;38.760;2023-02-21T05:23:16;97790.38;;;-10.53;65.41
77079;BME280;66004;55.096;38.760;2023-02-21T05:25:43;97783.22;;;-10.65;65.48
77079;BME280;66004;55.096;38.760;2023-02-21T05:28:08;97804.53;;;-10.51;65.16
77079;BME280;66004;55.096;38.760;2023-02-21T05:30:34;97783.81;;;-10.58;65.01
77079;BME280;66004;55.096;38.760;2023-02-21T05:33:00;97794.78;;;-10.47;65.57
77079;BME280;66004;55.096;38.760;2023-02-21T05:35:25;97795.31;;;-10.50;65.33
77079;BME280;66004;55.096;38.760;2023-02-21T05:37:51;97780.03;;;-10.56;65.41
77079;BME280;66004;55.096;38.760;2023-02-21T05:40:16;97779.00;;;-10.50;65.24
77079;BME280;66004;55.096;38.760;2023-02-21T05:42:42;97769.75;;;-10.49;65.28
77079;BME280;66004;55.096;38.760;2023-02-21T05:45:10;97795.97;;;-10.33;64.82
77079;BME280;66004;55.096;38.760;2023-02-21T05:47:39;97781.31;;;-10.32;64.44
77079;BME280;66004;55.096;38.760;2023-02-21T05:50:08;97776.47;;;-10.20;64.79
77079;BME280;66004;55.096;38.760;2023-02-21T05:52:36;97772.06;;;-10.31;64.05
77079;BME280;66004;55.096;38.760;2023-02-21T05:55:09;97774.81;;;-10.26;64.81
77079;BME280;66004;55.096;38.760;2023-02-21T05:57:38;97780.38;;;-10.05;64.20
77079;BME280;66004;55.096;38.760;2023-02-21T06:00:12;97754.75;;;-10.14;64.43
77079;BME280;66004;55.096;38.760;2023-02-21T06:02:38;97780.56;;;-9.74;64.09
77079;BME280;66004;55.096;38.760;2023-02-21T06:05:03;97762.28;;;-9.84;63.79
77079;BME280;66004;55.096;38.760;2023-02-21T06:07:29;97788.69;;;-9.80;63.70
77079;BME280;66004;55.096;38.760;2023-02-21T06:09:54;97778.28;;;-9.93;63.28
77079;BME280;66004;55.096;38.760;2023-02-21T06:12:21;97779.34;;;-9.99;63.34
77079;BME280;66004;55.096;38.760;2023-02-21T06:14:46;97779.03;;;-10.03;63.42
77079;BME280;66004;55.096;38.760;2023-02-21T06:17:12;97762.16;;;-10.05;63.11
77079;BME280;66004;55.096;38.760;2023-02-21T06:19:37;97784.25;;;-9.96;63.32
77079;BME280;66004;55.096;38.760;2023-02-21T06:22:03;97778.28;;;-9.93;63.34
77079;BME280;66004;55.096;38.760;2023-02-21T06:24:28;97782.59;;;-9.97;63.16
77079;BME280;66004;55.096;38.760;2023-02-21T06:26:54;97783.72;;;-9.93;62.73
77079;BME280;66004;55.096;38.760;2023-02-21T06:29:19;97788.59;;;-9.95;62.78
77079;BME280;66004;55.096;38.760;2023-02-21T06:31:45;97670.75;;;-10.64;62.42
77079;BME280;66004;55.096;38.760;2023-02-21T06:34:11;97776.66;;;-9.89;62.80
77079;BME280;66004;55.096;38.760;2023-02-21T06:36:37;97764.19;;;-9.85;62.15
77079;BME280;66004;55.096;38.760;2023-02-21T06:39:04;97774.06;;;-9.68;62.34
77079;BME280;66004;55.096;38.760;2023-02-21T06:41:30;97774.63;;;-9.61;62.13
77079;BME280;66004;55.096;38.760;2023-02-21T06:43:57;97755.00;;;-9.68;61.99
77079;BME280;66004;55.096;38.760;2023-02-21T06:46:25;97767.66;;;-9.36;61.49
77079;BME280;66004;55.096;38.760;2023-02-21T06:48:51;97775.31;;;-9.23;61.66
77079;BME280;66004;55.096;38.760;2023-02-21T06:51:17;97734.41;;;-9.49;61.23
77079;BME280;66004;55.096;38.760;2023-02-21T06:53:44;97766.09;;;-9.22;60.85
77079;BME280;66004;55.096;38.760;2023-02-21T06:56:10;97773.22;;;-9.01;60.90
77079;BME280;66004;55.096;38.760;2023-02-21T06:58:36;97768.31;;;-8.93;60.60
77079;BME280;66004;55.096;38.760;2023-02-21T07:01:02;97781.97;;;-8.78;60.23
77079;BME280;66004;55.096;38.760;2023-02-21T07:03:27;97783.06;;;-8.74;60.04
77079;BME280;66004;55.096;38.760;2023-02-21T07:05:53;97784.19;;;-8.70;60.05
77079;BME280;66004;55.096;38.760;2023-02-21T07:08:18;97779.25;;;-8.63;60.30
77079;BME280;66004;55.096;38.760;2023-02-21T07:10:44;97789.09;;;-8.56;59.99
77079;BME280;66004;55.096;38.760;2023-02-21T07:13:09;97773.56;;;-8.56;59.44
77079;BME280;66004;55.096;38.760;2023-02-21T07:15:35;97786.34;;;-8.41;58.84
77079;BME280;66004;55.096;38.760;2023-02-21T07:18:00;97790.19;;;-8.42;59.12
77079;BME280;66004;55.096;38.760;2023-02-21T07:20:26;97786.13;;;-8.45;59.18
77079;BME280;66004;55.096;38.760;2023-02-21T07:22:51;97792.38;;;-8.34;58.87
77079;BME280;66004;55.096;38.760;2023-02-21T07:25:19;97781.97;;;-8.22;58.83
77079;BME280;66004;55.096;38.760;2023-02-21T07:27:46;97766.16;;;-8.35;57.98
77079;BME280;66004;55.096;38.760;2023-02-21T07:30:12;97784.19;;;-8.18;58.44
77079;BME280;66004;55.096;38.760;2023-02-21T07:32:37;97792.91;;;-8.27;58.24
77079;BME280;66004;55.096;38.760;2023-02-21T07:35:03;97795.63;;;-8.22;58.21
77079;BME280;66004;55.096;38.760;2023-02-21T07:37:29;97786.34;;;-8.26;58.10
77079;BME280;66004;55.096;38.760;2023-02-21T07:39:54;97788.53;;;-8.28;57.99
77079;BME280;66004;55.096;38.760;2023-02-21T07:42:20;97800.53;;;-8.08;57.88
77079;BME280;66004;55.096;38.760;2023-02-21T07:44:45;97792.31;;;-7.88;57.86
77079;BME280;66004;55.096;38.760;2023-02-21T07:47:12;97783.28;;;-7.63;57.69
77079;BME280;66004;55.096;38.760;2023-02-21T07:49:38;97785.13;;;-7.48;57.15
77079;BME280;66004;55.096;38.760;2023-02-21T07:52:04;97791.13;;;-7.46;57.19
77079;BME280;66004;55.096;38.760;2023-02-21T07:54:30;97791.09;;;-7.40;56.85
77079;BME280;66004;55.096;38.760;2023-02-21T07:56:55;97788.94;;;-7.44;56.47
77079;BME280;66004;55.096;38.760;2023-02-21T07:59:21;97797.16;;;-7.49;56.01
77079;BME280;66004;55.096;38.760;2023-02-21T08:01:46;97789.22;;;-7.40;56.13
77079;BME280;66004;55.096;38.760;2023-02-21T08:04:12;97799.28;;;-7.30;55.93
77079;BME280;66004;55.096;38.760;2023-02-21T08:06:38;97790.28;;;-7.31;55.82
77079;BME280;66004;55.096;38.760;2023-02-21T08:09:04;97799.47;;;-7.16;56.06
77079;BME280;66004;55.096;38.760;2023-02-21T08:11:33;97783.88;;;-7.06;55.39
77079;BME280;66004;55.096;38.760;2023-02-21T08:14:01;97798.13;;;-7.14;55.28
77079;BME280;66004;55.096;38.760;2023-02-21T08:16:26;97790.56;;;-7.43;54.76
77079;BME280;66004;55.096;38.760;2023-02-21T08:18:52;97792.75;;;-7.34;54.97
77079;BME280;66004;55.096;38.760;2023-02-21T08:21:18;97791.06;;;-7.25;54.86
77079;BME280;66004;55.096;38.760;2023-02-21T08:23:43;97781.72;;;-7.14;54.83
77079;BME280;66004;55.096;38.760;2023-02-21T08:26:09;97800.78;;;-6.98;54.37
77079;BME280;66004;55.096;38.760;2023-02-21T08:28:35;97800.72;;;-6.88;54.57
77079;BME280;66004;55.096;38.760;2023-02-21T08:31:02;97792.06;;;-7.00;54.00
77079;BME280;66004;55.096;38.760;2023-02-21T08:33:27;97792.66;;;-7.14;54.02
77079;BME280;66004;55.096;38.760;2023-02-21T08:35:53;97791.53;;;-7.13;54.53
77079;BME280;66004;55.096;38.760;2023-02-21T08:38:19;97792.06;;;-7.00;53.80
77079;BME280;66004;55.096;38.760;2023-02-21T08:40:45;97789.00;;;-6.99;53.91
77079;BME280;66004;55.096;38.760;2023-02-21T08:43:10;97789.59;;;-7.07;53.65
77079;BME280;66004;55.096;38.760;2023-02-21T08:45:36;97781.75;;;-7.24;53.79
77079;BME280;66004;55.096;38.760;2023-02-21T08:48:02;97787.69;;;-7.07;53.86
77079;BME280;66004;55.096;38.760;2023-02-21T09:44:58;97798.91;;;-8.30;52.48
77079;BME280;66004;55.096;38.760;2023-02-21T09:47:28;97798.88;;;-8.40;52.47
77079;BME280;66004;55.096;38.760;2023-02-21T09:50:05;97799.19;;;-8.47;52.97
77079;BME280;66004;55.096;38.760;2023-02-21T09:52:38;97784.72;;;-8.63;52.99
77079;BME280;66004;55.096;38.760;2023-02-21T09:55:10;97792.91;;;-8.68;52.86
77079;BME280;66004;55.096;38.760;2023-02-21T09:57:36;97781.44;;;-8.75;52.83
77079;BME280;66004;55.096;38.760;2023-02-21T10:00:16;97796.75;;;-8.58;52.77
77079;BME280;66004;55.096;38.760;2023-02-21T10:02:53;97791.81;;;-8.51;52.60
77079;BME280;66004;55.096;38.760;2023-02-21T10:05:36;97784.19;;;-8.59;52.73
77079;BME280;66004;55.096;38.760;2023-02-21T10:08:23;97780.91;;;-8.62;52.47
77079;BME280;66004;55.096;38.760;2023-02-21T10:11:01;97791.81;;;-8.51;52.65
77079;BME280;66004;55.096;38.760;2023-02-21T10:13:37;97788.84;;;-8.60;52.58
77079;BME280;66004;55.096;38.760;2023-02-21T10:16:09;97789.09;;;-8.67;53.06
77079;BME280;66004;55.096;38.760;2023-02-21T10:21:43;97803.25;;;-8.75;53.26
77079;BME280;66004;55.096;38.760;2023-02-21T10:24:21;97797.50;;;-8.84;53.37
77079;BME280;66004;55.096;38.760;2023-02-21T10:26:56;97803.22;;;-8.80;53.61
77079;BME280;66004;55.096;38.760;2023-02-21T10:29:50;97799.41;;;-8.74;53.48
77079;BME280;66004;55.096;38.760;2023-02-21T10:32:14;97803.78;;;-8.78;53.63
77079;BME280;66004;55.096;38.760;2023-02-21T10:34:40;97797.50;;;-8.89;53.49
77079;BME280;66004;55.096;38.760;2023-02-21T10:40:04;97806.50;;;-8.78;53.14
77079;BME280;66004;55.096;38.760;2023-02-21T10:42:48;97808.19;;;-8.72;54.07
77079;BME280;66004;55.096;38.760;2023-02-21T10:45:17;97810.31;;;-8.74;53.64
77079;BME280;66004;55.096;38.760;2023-02-21T10:47:57;97810.59;;;-8.70;53.92
77079;BME280;66004;55.096;38.760;2023-02-21T10:50:50;97811.97;;;-8.73;54.20
77079;BME280;66004;55.096;38.760;2023-02-21T10:53:36;97810.59;;;-8.70;54.10
77079;BME280;66004;55.096;38.760;2023-02-21T11:01:28;97819.91;;;-8.66;53.40
77079;BME280;66004;55.096;38.760;2023-02-21T11:04:24;97813.31;;;-8.81;53.35
77079;BME280;66004;55.096;38.760;2023-02-21T11:12:06;97827.78;;;-8.75;53.49
77079;BME280;66004;55.096;38.760;2023-02-21T11:14:34;97838.13;;;-8.77;53.46
77079;BME280;66004;55.096;38.760;2023-02-21T11:17:21;97832.94;;;-8.84;53.90
77079;BME280;66004;55.096;38.760;2023-02-21T11:27:37;97848.41;;;-9.05;53.65
77079;BME280;66004;55.096;38.760;2023-02-21T11:30:22;97855.50;;;-9.04;53.56
77079;BME280;66004;55.096;38.760;2023-02-21T11:32:51;97852.19;;;-9.11;53.62
77079;BME280;66004;55.096;38.760;2023-02-21T11:35:31;97861.75;;;-9.03;53.67
77079;BME280;66004;55.096;38.760;2023-02-21T11:38:00;97866.38;;;-9.04;53.64
77079;BME280;66004;55.096;38.760;2023-02-21T11:46:03;97863.59;;;-9.19;53.67
77079;BME280;66004;55.096;38.760;2023-02-21T11:48:54;97857.31;;;-9.20;54.02
77079;BME280;66004;55.096;38.760;2023-02-21T11:54:04;97842.28;;;-9.32;54.17
77079;BME280;66004;55.096;38.760;2023-02-21T11:59:32;97869.59;;;-9.12;54.50
77079;BME280;66004;55.096;38.760;2023-02-21T12:15:54;97900.53;;;-9.38;54.93
77079;BME280;66004;55.096;38.760;2023-02-21T12:34:24;97924.50;;;-9.35;54.94
77079;BME280;66004;55.096;38.760;2023-02-21T12:39:43;97931.00;;;-9.42;54.59
77079;BME280;66004;55.096;38.760;2023-02-21T12:42:36;97927.69;;;-9.49;54.76
77079;BME280;66004;55.096;38.760;2023-02-21T12:50:41;97949.47;;;-9.49;54.86
77079;BME280;66004;55.096;38.760;2023-02-21T12:53:12;97949.78;;;-9.40;55.11
77079;BME280;66004;55.096;38.760;2023-02-21T12:55:51;97953.31;;;-9.45;54.94
77079;BME280;66004;55.096;38.760;2023-02-21T13:01:01;97964.63;;;-9.58;54.65
77079;BME280;66004;55.096;38.760;2023-02-21T13:12:11;97987.47;;;-9.59;54.23
77079;BME280;66004;55.096;38.760;2023-02-21T13:14:42;97990.22;;;-9.59;54.26
77079;BME280;66004;55.096;38.760;2023-02-21T13:17:14;97983.91;;;-9.65;54.33
77079;BME280;66004;55.096;38.760;2023-02-21T13:19:44;97989.03;;;-9.68;54.03
77079;BME280;66004;55.096;38.760;2023-02-21T13:22:19;97996.09;;;-9.72;54.46
77079;BME280;66004;55.096;38.760;2023-02-21T13:28:18;98005.94;;;-9.66;54.87
77079;BME280;66004;55.096;38.760;2023-02-21T13:30:50;98000.22;;;-9.70;54.45
77079;BME280;66004;55.096;38.760;2023-02-21T13:35:49;98009.34;;;-9.81;54.79
77079;BME280;66004;55.096;38.760;2023-02-21T13:38:17;97996.16;;;-9.94;54.72
77079;BME280;66004;55.096;38.760;2023-02-21T13:41:01;98008.44;;;-9.92;55.09
77079;BME280;66004;55.096;38.760;2023-02-21T13:43:30;98020.44;;;-9.88;54.78
77079;BME280;66004;55.096;38.760;2023-02-21T13:51:51;98027.31;;;-10.07;55.90
77079;BME280;66004;55.096;38.760;2023-02-21T13:54:22;98037.03;;;-10.11;55.99
77079;BME280;66004;55.096;38.760;2023-02-21T13:56:48;98034.78;;;-10.20;56.14
77079;BME280;66004;55.096;38.760;2023-02-21T13:59:34;98027.00;;;-10.38;56.14
77079;BME280;66004;55.096;38.760;2023-02-21T14:02:19;98037.03;;;-10.39;56.53
77079;BME280;66004;55.096;38.760;2023-02-21T14:07:45;98057.84;;;-10.49;57.15
77079;BME280;66004;55.096;38.760;2023-02-21T14:10:25;98061.81;;;-10.57;56.95
77079;BME280;66004;55.096;38.760;2023-02-21T14:12:58;98070.22;;;-10.59;57.04
77079;BME280;66004;55.096;38.760;2023-02-21T14:15:34;98082.19;;;-10.60;57.09
77079;BME280;66004;55.096;38.760;2023-02-21T14:18:00;98073.38;;;-10.67;57.28
77079;BME280;66004;55.096;38.760;2023-02-21T14:20:27;98092.97;;;-10.65;57.68
77079;BME280;66004;55.096;38.760;2023-02-21T14:22:57;98088.06;;;-10.68;57.84
77079;BME280;66004;55.096;38.760;2023-02-21T14:25:24;98093.47;;;-10.68;57.64
77079;BME280;66004;55.096;38.760;2023-02-21T14:27:50;98089.56;;;-10.77;57.59
77079;BME280;66004;55.096;38.760;2023-02-21T14:30:26;98101.56;;;-10.73;58.33
77079;BME280;66004;55.096;38.760;2023-02-21T14:32:54;98102.03;;;-10.76;58.44
77079;BME280;66004;55.096;38.760;2023-02-21T14:35:27;98112.25;;;-10.83;58.15
